createdAt,value
2018-03-25T00:00:13.130Z,993.5
2018-03-25T00:01:13.141Z,993.49
2018-03-25T00:02:13.154Z,993.49
2018-03-25T00:03:13.167Z,993.51
2018-03-25T00:04:13.187Z,993.54
2018-03-25T00:05:13.194Z,993.52
2018-03-25T00:06:13.205Z,993.54
2018-03-25T00:07:13.218Z,993.55
2018-03-25T00:08:13.233Z,993.56
2018-03-25T00:09:13.244Z,993.58
2018-03-25T00:10:13.257Z,993.54
2018-03-25T00:11:13.270Z,993.59
2018-03-25T00:12:13.283Z,993.58
2018-03-25T00:13:13.300Z,993.6
2018-03-25T00:14:13.309Z,993.58
2018-03-25T00:15:13.322Z,993.61
2018-03-25T00:16:13.334Z,993.66
2018-03-25T00:17:13.353Z,993.63
2018-03-25T00:18:13.364Z,993.65
2018-03-25T00:19:13.372Z,993.69
2018-03-25T00:20:13.385Z,993.69
2018-03-25T00:21:13.397Z,993.64
2018-03-25T00:22:13.409Z,993.64
2018-03-25T00:23:13.423Z,993.73
2018-03-25T00:24:13.437Z,993.67
2018-03-25T00:25:13.448Z,993.69
2018-03-25T00:26:13.463Z,993.7
2018-03-25T00:27:13.473Z,993.7
2018-03-25T00:28:13.487Z,993.69
2018-03-25T00:29:13.500Z,993.66
2018-03-25T00:30:13.512Z,993.63
2018-03-25T00:31:13.528Z,993.66
2018-03-25T00:32:13.537Z,993.66
2018-03-25T00:33:13.614Z,993.63
2018-03-25T00:34:13.562Z,993.66
2018-03-25T00:35:13.589Z,993.69
2018-03-25T00:36:13.588Z,993.68
2018-03-25T00:37:13.600Z,993.67
2018-03-25T00:38:13.612Z,993.7
2018-03-25T00:39:13.625Z,993.7
2018-03-25T00:40:13.638Z,993.74
2018-03-25T00:41:13.652Z,993.72
2018-03-25T00:42:13.664Z,993.72
2018-03-25T00:43:13.676Z,993.68
2018-03-25T00:44:13.687Z,993.7
2018-03-25T00:45:13.700Z,993.69
2018-03-25T00:46:13.713Z,993.67
2018-03-25T00:47:13.729Z,993.72
2018-03-25T00:48:13.738Z,993.71
2018-03-25T00:49:13.749Z,993.72
2018-03-25T00:50:13.763Z,993.67
2018-03-25T00:51:13.776Z,993.68
2018-03-25T00:52:13.793Z,993.69
2018-03-25T00:53:13.801Z,993.72
2018-03-25T00:54:13.813Z,993.71
2018-03-25T00:55:13.828Z,993.74
2018-03-25T00:56:13.837Z,993.75
2018-03-25T00:57:13.850Z,993.72
2018-03-25T00:58:13.862Z,993.71
2018-03-25T00:59:13.876Z,993.72
2018-03-25T01:00:13.887Z,993.74
2018-03-25T01:01:13.900Z,993.74
2018-03-25T01:02:13.913Z,993.73
2018-03-25T01:03:13.926Z,993.74
2018-03-25T01:04:13.939Z,993.7
2018-03-25T01:05:13.949Z,993.72
2018-03-25T01:06:13.963Z,993.75
2018-03-25T01:07:13.974Z,993.73
2018-03-25T01:08:13.986Z,993.75
2018-03-25T01:09:13.999Z,993.72
2018-03-25T01:10:14.013Z,993.72
2018-03-25T01:11:14.024Z,993.72
2018-03-25T01:12:14.037Z,993.7
2018-03-25T01:13:14.049Z,993.74
2018-03-25T01:14:14.061Z,993.72
2018-03-25T01:15:14.074Z,993.73
2018-03-25T01:16:14.085Z,993.71
2018-03-25T01:17:14.098Z,993.75
2018-03-25T01:18:14.109Z,993.74
2018-03-25T01:19:14.122Z,993.72
2018-03-25T01:20:14.135Z,993.74
2018-03-25T01:21:14.149Z,993.67
2018-03-25T01:22:14.159Z,993.69
2018-03-25T01:23:14.171Z,993.7
2018-03-25T01:24:14.185Z,993.66
2018-03-25T01:25:14.195Z,993.61
2018-03-25T01:26:14.209Z,993.67
2018-03-25T01:27:14.220Z,993.63
2018-03-25T01:28:14.233Z,993.64
2018-03-25T01:29:14.245Z,993.63
2018-03-25T01:30:14.257Z,993.63
2018-03-25T01:31:14.269Z,993.65
2018-03-25T01:32:14.285Z,993.65
2018-03-25T01:33:14.293Z,993.69
2018-03-25T01:34:14.306Z,993.67
2018-03-25T01:35:14.318Z,993.68
2018-03-25T01:36:14.328Z,993.63
2018-03-25T01:37:14.342Z,993.65
2018-03-25T01:38:14.354Z,993.65
2018-03-25T01:39:14.367Z,993.63
2018-03-25T01:40:14.379Z,993.6
2018-03-25T01:41:14.391Z,993.63
2018-03-25T01:42:14.403Z,993.61
2018-03-25T01:43:14.415Z,993.6
2018-03-25T01:44:14.429Z,993.6
2018-03-25T01:45:14.439Z,993.62
2018-03-25T01:46:14.467Z,993.61
2018-03-25T01:47:14.463Z,993.57
2018-03-25T01:48:14.476Z,993.59
2018-03-25T01:49:14.487Z,993.55
2018-03-25T01:50:14.500Z,993.59
2018-03-25T01:51:14.511Z,993.58
2018-03-25T01:52:14.524Z,993.58
2018-03-25T01:53:14.543Z,993.56
2018-03-25T01:54:14.548Z,993.6
2018-03-25T01:55:14.566Z,993.55
2018-03-25T01:56:14.574Z,993.56
2018-03-25T01:57:14.584Z,993.54
2018-03-25T01:58:14.597Z,993.54
2018-03-25T01:59:14.608Z,993.55
2018-03-25T02:00:14.620Z,993.54
2018-03-25T02:01:14.632Z,993.51
2018-03-25T02:02:14.643Z,993.52
2018-03-25T02:03:14.657Z,993.53
2018-03-25T02:04:14.670Z,993.52
2018-03-25T02:05:14.680Z,993.51
2018-03-25T02:06:14.692Z,993.5
2018-03-25T02:07:14.705Z,993.52
2018-03-25T02:08:14.717Z,993.51
2018-03-25T02:09:14.728Z,993.51
2018-03-25T02:10:14.740Z,993.49
2018-03-25T02:11:14.753Z,993.48
2018-03-25T02:12:14.814Z,993.47
2018-03-25T02:13:14.776Z,993.44
2018-03-25T02:14:14.789Z,993.43
2018-03-25T02:15:14.802Z,993.49
2018-03-25T02:16:14.812Z,993.47
2018-03-25T02:17:14.873Z,993.46
2018-03-25T02:18:14.838Z,993.45
2018-03-25T02:19:14.848Z,993.44
2018-03-25T02:20:14.860Z,993.43
2018-03-25T02:21:14.871Z,993.46
2018-03-25T02:22:14.883Z,993.44
2018-03-25T02:23:14.898Z,993.42
2018-03-25T02:24:14.907Z,993.42
2018-03-25T02:25:14.942Z,993.43
2018-03-25T02:26:14.931Z,993.43
2018-03-25T02:27:14.944Z,993.44
2018-03-25T02:28:14.959Z,993.49
2018-03-25T02:29:14.967Z,993.5
2018-03-25T02:30:14.979Z,993.48
2018-03-25T02:31:14.991Z,993.47
2018-03-25T02:32:15.003Z,993.48
2018-03-25T02:33:15.019Z,993.51
2018-03-25T02:34:15.026Z,993.51
2018-03-25T02:35:15.038Z,993.49
2018-03-25T02:36:15.050Z,993.49
2018-03-25T02:37:15.062Z,993.5
2018-03-25T02:38:15.075Z,993.49
2018-03-25T02:39:15.088Z,993.52
2018-03-25T02:40:15.100Z,993.53
2018-03-25T02:41:15.112Z,993.51
2018-03-25T02:42:15.127Z,993.53
2018-03-25T02:43:15.133Z,993.5
2018-03-25T02:44:15.146Z,993.55
2018-03-25T02:45:15.158Z,993.55
2018-03-25T02:46:15.171Z,993.53
2018-03-25T02:47:15.182Z,993.52
2018-03-25T02:48:15.196Z,993.54
2018-03-25T02:49:15.205Z,993.52
2018-03-25T02:50:15.216Z,993.53
2018-03-25T02:51:15.227Z,993.5
2018-03-25T02:52:15.241Z,993.57
2018-03-25T02:53:15.251Z,993.52
2018-03-25T02:54:15.265Z,993.54
2018-03-25T02:55:15.276Z,993.53
2018-03-25T02:56:15.287Z,993.51
2018-03-25T02:57:15.303Z,993.56
2018-03-25T02:58:15.320Z,993.55
2018-03-25T02:59:15.322Z,993.57
2018-03-25T03:00:15.333Z,993.56
2018-03-25T03:01:15.347Z,993.57
2018-03-25T03:02:15.364Z,993.61
2018-03-25T03:03:15.369Z,993.6
2018-03-25T03:04:15.381Z,993.6
2018-03-25T03:05:15.393Z,993.61
2018-03-25T03:06:15.404Z,993.58
2018-03-25T03:07:15.416Z,993.6
2018-03-25T03:08:15.427Z,993.64
2018-03-25T03:09:15.439Z,993.62
2018-03-25T03:10:15.450Z,993.61
2018-03-25T03:11:15.463Z,993.65
2018-03-25T03:12:15.474Z,993.6
2018-03-25T03:13:15.485Z,993.6
2018-03-25T03:14:15.498Z,993.64
2018-03-25T03:15:15.511Z,993.61
2018-03-25T03:16:15.521Z,993.63
2018-03-25T03:17:15.533Z,993.65
2018-03-25T03:18:15.544Z,993.65
2018-03-25T03:19:15.554Z,993.66
2018-03-25T03:20:15.567Z,993.64
2018-03-25T03:21:15.579Z,993.59
2018-03-25T03:22:15.595Z,993.64
2018-03-25T03:23:15.611Z,993.63
2018-03-25T03:24:15.618Z,993.64
2018-03-25T03:25:15.626Z,993.63
2018-03-25T03:26:15.638Z,993.63
2018-03-25T03:27:15.656Z,993.66
2018-03-25T03:28:15.662Z,993.66
2018-03-25T03:29:15.675Z,993.65
2018-03-25T03:30:15.691Z,993.68
2018-03-25T03:31:15.700Z,993.65
2018-03-25T03:32:15.708Z,993.68
2018-03-25T03:33:15.718Z,993.65
2018-03-25T03:34:15.731Z,993.64
2018-03-25T03:35:15.742Z,993.64
2018-03-25T03:36:15.755Z,993.6
2018-03-25T03:37:15.764Z,993.63
2018-03-25T03:38:15.778Z,993.6
2018-03-25T03:39:15.790Z,993.63
2018-03-25T03:40:15.800Z,993.61
2018-03-25T03:41:15.811Z,993.65
2018-03-25T03:42:15.823Z,993.65
2018-03-25T03:43:15.835Z,993.67
2018-03-25T03:44:15.847Z,993.66
2018-03-25T03:45:15.858Z,993.67
2018-03-25T03:46:15.873Z,993.64
2018-03-25T03:47:15.880Z,993.67
2018-03-25T03:48:15.895Z,993.68
2018-03-25T03:49:15.906Z,993.68
2018-03-25T03:50:15.915Z,993.68
2018-03-25T03:51:15.928Z,993.67
2018-03-25T03:52:15.937Z,993.72
2018-03-25T03:53:15.950Z,993.68
2018-03-25T03:54:15.965Z,993.71
2018-03-25T03:55:15.972Z,993.68
2018-03-25T03:56:15.984Z,993.72
2018-03-25T03:57:15.995Z,993.71
2018-03-25T03:58:16.008Z,993.67
2018-03-25T03:59:16.019Z,993.69
2018-03-25T04:00:16.030Z,993.65
2018-03-25T04:01:16.041Z,993.69
2018-03-25T04:02:16.052Z,993.71
2018-03-25T04:03:16.063Z,993.69
2018-03-25T04:04:16.075Z,993.68
2018-03-25T04:05:16.087Z,993.67
2018-03-25T04:06:16.099Z,993.66
2018-03-25T04:07:16.112Z,993.67
2018-03-25T04:08:16.122Z,993.66
2018-03-25T04:09:16.133Z,993.69
2018-03-25T04:10:16.145Z,993.63
2018-03-25T04:11:16.156Z,993.65
2018-03-25T04:12:16.167Z,993.68
2018-03-25T04:13:16.178Z,993.64
2018-03-25T04:14:16.192Z,993.65
2018-03-25T04:15:16.208Z,993.66
2018-03-25T04:16:16.215Z,993.68
2018-03-25T04:17:16.224Z,993.66
2018-03-25T04:18:16.237Z,993.72
2018-03-25T04:19:16.250Z,993.7
2018-03-25T04:20:16.260Z,993.74
2018-03-25T04:21:16.270Z,993.73
2018-03-25T04:22:16.283Z,993.74
2018-03-25T04:23:16.294Z,993.79
2018-03-25T04:24:16.325Z,993.77
2018-03-25T04:25:16.317Z,993.77
2018-03-25T04:26:16.328Z,993.82
2018-03-25T04:27:16.341Z,993.81
2018-03-25T04:28:16.351Z,993.8
2018-03-25T04:29:16.362Z,993.83
2018-03-25T04:30:16.376Z,993.83
2018-03-25T04:31:16.385Z,993.82
2018-03-25T04:32:16.407Z,993.81
2018-03-25T04:33:16.407Z,993.82
2018-03-25T04:34:16.419Z,993.78
2018-03-25T04:35:16.436Z,993.8
2018-03-25T04:36:16.441Z,993.77
2018-03-25T04:37:16.456Z,993.78
2018-03-25T04:38:16.465Z,993.76
2018-03-25T04:39:16.476Z,993.78
2018-03-25T04:40:16.487Z,993.73
2018-03-25T04:41:16.499Z,993.75
2018-03-25T04:42:16.513Z,993.75
2018-03-25T04:43:16.520Z,993.76
2018-03-25T04:44:16.533Z,993.76
2018-03-25T04:45:16.545Z,993.75
2018-03-25T04:46:16.555Z,993.77
2018-03-25T04:47:16.572Z,993.78
2018-03-25T04:48:16.578Z,993.76
2018-03-25T04:49:16.590Z,993.81
2018-03-25T04:50:16.600Z,993.8
2018-03-25T04:51:16.612Z,993.75
2018-03-25T04:52:16.626Z,993.8
2018-03-25T04:53:16.685Z,993.8
2018-03-25T04:54:16.646Z,993.81
2018-03-25T04:55:16.658Z,993.79
2018-03-25T04:56:16.672Z,993.83
2018-03-25T04:57:16.679Z,993.89
2018-03-25T04:58:16.691Z,993.85
2018-03-25T04:59:16.707Z,993.82
2018-03-25T05:00:16.714Z,993.83
2018-03-25T05:01:16.725Z,993.82
2018-03-25T05:02:16.736Z,993.84
2018-03-25T05:03:16.799Z,993.83
2018-03-25T05:04:16.759Z,993.85
2018-03-25T05:05:16.770Z,993.89
2018-03-25T05:06:16.782Z,993.82
2018-03-25T05:07:16.793Z,993.83
2018-03-25T05:08:16.804Z,993.8
2018-03-25T05:09:16.815Z,993.83
2018-03-25T05:10:16.828Z,993.82
2018-03-25T05:11:16.838Z,993.8
2018-03-25T05:12:16.853Z,993.81
2018-03-25T05:13:16.911Z,993.77
2018-03-25T05:14:16.872Z,993.79
2018-03-25T05:15:16.884Z,993.78
2018-03-25T05:16:16.893Z,993.81
2018-03-25T05:17:16.904Z,993.84
2018-03-25T05:18:16.918Z,993.82
2018-03-25T05:19:16.927Z,993.84
2018-03-25T05:20:16.938Z,993.82
2018-03-25T05:21:16.953Z,993.82
2018-03-25T05:22:16.962Z,993.84
2018-03-25T05:23:16.973Z,993.83
2018-03-25T05:24:16.983Z,993.86
2018-03-25T05:25:16.996Z,993.82
2018-03-25T05:26:17.006Z,993.83
2018-03-25T05:27:17.016Z,993.84
2018-03-25T05:28:17.030Z,993.84
2018-03-25T05:29:17.039Z,993.78
2018-03-25T05:30:17.049Z,993.79
2018-03-25T05:31:17.063Z,993.79
2018-03-25T05:32:17.074Z,993.8
2018-03-25T05:33:17.084Z,993.82
2018-03-25T05:34:17.194Z,993.81
2018-03-25T05:35:17.119Z,993.82
2018-03-25T05:36:17.119Z,993.79
2018-03-25T05:37:17.131Z,993.8
2018-03-25T05:38:17.139Z,993.81
2018-03-25T05:39:17.152Z,993.79
2018-03-25T05:40:17.163Z,993.84
2018-03-25T05:41:17.174Z,993.82
2018-03-25T05:42:17.184Z,993.82
2018-03-25T05:43:17.196Z,993.81
2018-03-25T05:44:17.210Z,993.82
2018-03-25T05:45:17.224Z,993.82
2018-03-25T05:46:17.232Z,993.84
2018-03-25T05:47:17.304Z,993.84
2018-03-25T05:48:17.254Z,993.87
2018-03-25T05:49:17.265Z,993.86
2018-03-25T05:50:17.276Z,993.91
2018-03-25T05:51:17.287Z,993.91
2018-03-25T05:52:17.297Z,993.93
2018-03-25T05:53:17.309Z,993.99
2018-03-25T05:54:17.323Z,993.98
2018-03-25T05:55:17.410Z,994.02
2018-03-25T05:56:17.343Z,994
2018-03-25T05:57:17.355Z,994.02
2018-03-25T05:58:17.371Z,994.01
2018-03-25T05:59:17.377Z,994
2018-03-25T06:00:17.386Z,994.01
2018-03-25T06:01:17.439Z,994.02
2018-03-25T06:02:17.409Z,994.03
2018-03-25T06:03:17.419Z,994.07
2018-03-25T06:04:17.431Z,994.13
2018-03-25T06:05:17.443Z,994.12
2018-03-25T06:06:17.456Z,994.15
2018-03-25T06:07:17.465Z,994.2
2018-03-25T06:08:17.476Z,994.15
2018-03-25T06:09:17.492Z,994.13
2018-03-25T06:10:17.498Z,994.18
2018-03-25T06:11:17.515Z,994.2
2018-03-25T06:12:17.523Z,994.18
2018-03-25T06:13:17.532Z,994.2
2018-03-25T06:14:17.542Z,994.18
2018-03-25T06:15:17.555Z,994.2
2018-03-25T06:16:17.567Z,994.19
2018-03-25T06:17:17.577Z,994.24
2018-03-25T06:18:17.590Z,994.19
2018-03-25T06:19:17.606Z,994.21
2018-03-25T06:20:17.611Z,994.21
2018-03-25T06:21:17.623Z,994.23
2018-03-25T06:22:17.634Z,994.22
2018-03-25T06:23:17.651Z,994.2
2018-03-25T06:24:17.655Z,994.2
2018-03-25T06:25:17.666Z,994.27
2018-03-25T06:26:17.678Z,994.23
2018-03-25T06:27:17.692Z,994.28
2018-03-25T06:28:17.702Z,994.29
2018-03-25T06:29:17.710Z,994.3
2018-03-25T06:30:17.723Z,994.28
2018-03-25T06:31:17.734Z,994.3
2018-03-25T06:32:17.746Z,994.33
2018-03-25T06:33:17.755Z,994.35
2018-03-25T06:34:17.768Z,994.37
2018-03-25T06:35:17.801Z,994.34
2018-03-25T06:36:17.788Z,994.39
2018-03-25T06:37:17.801Z,994.37
2018-03-25T06:38:17.812Z,994.37
2018-03-25T06:39:17.874Z,994.4
2018-03-25T06:40:17.834Z,994.41
2018-03-25T06:41:17.845Z,994.42
2018-03-25T06:42:17.857Z,994.39
2018-03-25T06:43:17.867Z,994.39
2018-03-25T06:44:17.928Z,994.43
2018-03-25T06:45:17.890Z,994.43
2018-03-25T06:46:17.901Z,994.47
2018-03-25T06:47:17.912Z,994.49
2018-03-25T06:48:17.925Z,994.52
2018-03-25T06:49:17.936Z,994.5
2018-03-25T06:50:17.948Z,994.52
2018-03-25T06:51:17.959Z,994.52
2018-03-25T06:52:17.968Z,994.52
2018-03-25T06:53:17.985Z,994.48
2018-03-25T06:54:17.994Z,994.56
2018-03-25T06:55:18.002Z,994.51
2018-03-25T06:56:18.015Z,994.56
2018-03-25T06:57:18.025Z,994.55
2018-03-25T06:58:18.036Z,994.54
2018-03-25T06:59:18.048Z,994.56
2018-03-25T07:00:18.060Z,994.57
2018-03-25T07:01:18.073Z,994.57
2018-03-25T07:02:18.082Z,994.56
2018-03-25T07:03:18.092Z,994.58
2018-03-25T07:04:18.154Z,994.6
2018-03-25T07:05:18.116Z,994.55
2018-03-25T07:06:18.128Z,994.57
2018-03-25T07:07:18.141Z,994.6
2018-03-25T07:08:18.149Z,994.61
2018-03-25T07:09:18.161Z,994.61
2018-03-25T07:10:18.174Z,994.63
2018-03-25T07:11:18.186Z,994.65
2018-03-25T07:12:18.195Z,994.62
2018-03-25T07:13:18.215Z,994.65
2018-03-25T07:14:18.217Z,994.68
2018-03-25T07:15:18.228Z,994.66
2018-03-25T07:16:18.240Z,994.64
2018-03-25T07:17:18.253Z,994.68
2018-03-25T07:18:18.264Z,994.69
2018-03-25T07:19:18.326Z,994.69
2018-03-25T07:20:18.285Z,994.7
2018-03-25T07:21:18.299Z,994.71
2018-03-25T07:22:18.323Z,994.73
2018-03-25T07:23:18.321Z,994.72
2018-03-25T07:24:18.336Z,994.75
2018-03-25T07:25:18.346Z,994.77
2018-03-25T07:26:18.366Z,994.8
2018-03-25T07:27:18.372Z,994.82
2018-03-25T07:28:18.378Z,994.78
2018-03-25T07:29:18.394Z,994.88
2018-03-25T07:30:18.404Z,994.85
2018-03-25T07:31:18.412Z,994.89
2018-03-25T07:32:18.425Z,994.87
2018-03-25T07:33:18.437Z,994.88
2018-03-25T07:34:18.447Z,994.9
2018-03-25T07:35:18.470Z,994.92
2018-03-25T07:36:18.472Z,994.91
2018-03-25T07:37:18.488Z,994.92
2018-03-25T07:38:18.493Z,994.93
2018-03-25T07:39:18.507Z,994.92
2018-03-25T07:40:18.517Z,994.91
2018-03-25T07:41:18.529Z,994.91
2018-03-25T07:42:18.542Z,994.91
2018-03-25T07:43:18.552Z,994.92
2018-03-25T07:44:18.565Z,994.91
2018-03-25T07:45:18.576Z,994.93
2018-03-25T07:46:18.587Z,994.96
2018-03-25T07:47:18.600Z,994.97
2018-03-25T07:48:18.612Z,994.96
2018-03-25T07:49:18.622Z,994.96
2018-03-25T07:50:18.635Z,994.99
2018-03-25T07:51:18.648Z,995
2018-03-25T07:52:18.661Z,994.99
2018-03-25T07:53:18.670Z,995.02
2018-03-25T07:54:18.684Z,995.04
2018-03-25T07:55:18.693Z,995.08
2018-03-25T07:56:18.704Z,995.06
2018-03-25T07:57:18.720Z,995.08
2018-03-25T07:58:18.731Z,995.11
2018-03-25T07:59:18.742Z,995.11
2018-03-25T08:00:18.753Z,995.13
2018-03-25T08:01:18.765Z,995.11
2018-03-25T08:02:18.777Z,995.14
2018-03-25T08:03:18.793Z,995.14
2018-03-25T08:04:18.801Z,995.15
2018-03-25T08:05:18.815Z,995.15
2018-03-25T08:06:18.824Z,995.17
2018-03-25T08:07:18.838Z,995.2
2018-03-25T08:08:18.850Z,995.21
2018-03-25T08:09:18.859Z,995.23
2018-03-25T08:10:18.874Z,995.25
2018-03-25T08:11:18.889Z,995.21
2018-03-25T08:12:18.897Z,995.22
2018-03-25T08:13:18.909Z,995.19
2018-03-25T08:14:18.922Z,995.2
2018-03-25T08:15:18.934Z,995.24
2018-03-25T08:16:18.945Z,995.19
2018-03-25T08:17:18.959Z,995.22
2018-03-25T08:18:18.968Z,995.25
2018-03-25T08:19:18.981Z,995.25
2018-03-25T08:20:19.004Z,995.26
2018-03-25T08:21:19.006Z,995.24
2018-03-25T08:22:19.017Z,995.27
2018-03-25T08:23:19.030Z,995.27
2018-03-25T08:24:19.042Z,995.29
2018-03-25T08:25:19.055Z,995.29
2018-03-25T08:26:19.075Z,995.3
2018-03-25T08:27:19.079Z,995.31
2018-03-25T08:28:19.091Z,995.3
2018-03-25T08:29:19.115Z,995.3
2018-03-25T08:30:19.180Z,995.33
2018-03-25T08:31:19.130Z,995.29
2018-03-25T08:32:19.148Z,995.32
2018-03-25T08:33:19.152Z,995.3
2018-03-25T08:34:19.166Z,995.31
2018-03-25T08:35:19.229Z,995.31
2018-03-25T08:36:19.190Z,995.36
2018-03-25T08:37:19.202Z,995.31
2018-03-25T08:38:19.215Z,995.35
2018-03-25T08:39:19.228Z,995.34
2018-03-25T08:40:19.265Z,995.31
2018-03-25T08:41:19.252Z,995.33
2018-03-25T08:42:19.265Z,995.31
2018-03-25T08:43:19.278Z,995.32
2018-03-25T08:44:19.293Z,995.33
2018-03-25T08:45:19.355Z,995.34
2018-03-25T08:46:19.315Z,995.35
2018-03-25T08:47:19.330Z,995.38
2018-03-25T08:48:19.342Z,995.32
2018-03-25T08:49:19.354Z,995.31
2018-03-25T08:50:19.366Z,995.33
2018-03-25T08:51:19.384Z,995.36
2018-03-25T08:52:19.394Z,995.36
2018-03-25T08:53:19.407Z,995.36
2018-03-25T08:54:19.418Z,995.37
2018-03-25T08:55:19.430Z,995.37
2018-03-25T08:56:19.446Z,995.42
2018-03-25T08:57:19.457Z,995.44
2018-03-25T08:58:19.470Z,995.45
2018-03-25T08:59:19.484Z,995.42
2018-03-25T09:00:19.497Z,995.43
2018-03-25T09:01:19.510Z,995.46
2018-03-25T09:02:19.528Z,995.45
2018-03-25T09:03:19.535Z,995.51
2018-03-25T09:04:19.548Z,995.45
2018-03-25T09:05:19.561Z,995.47
2018-03-25T09:06:19.579Z,995.48
2018-03-25T09:07:19.589Z,995.48
2018-03-25T09:08:19.600Z,995.48
2018-03-25T09:09:19.614Z,995.49
2018-03-25T09:10:19.627Z,995.47
2018-03-25T09:11:19.644Z,995.5
2018-03-25T09:12:19.655Z,995.52
2018-03-25T09:13:19.666Z,995.51
2018-03-25T09:14:19.680Z,995.52
2018-03-25T09:15:19.694Z,995.51
2018-03-25T09:16:19.706Z,995.53
2018-03-25T09:17:19.719Z,995.55
2018-03-25T09:18:19.733Z,995.54
2018-03-25T09:19:19.747Z,995.5
2018-03-25T09:20:19.765Z,995.5
2018-03-25T09:21:19.773Z,995.51
2018-03-25T09:22:19.792Z,995.51
2018-03-25T09:23:19.803Z,995.55
2018-03-25T09:24:19.814Z,995.57
2018-03-25T09:25:19.828Z,995.55
2018-03-25T09:26:19.842Z,995.51
2018-03-25T09:27:19.858Z,995.53
2018-03-25T09:28:19.868Z,995.52
2018-03-25T09:29:19.882Z,995.54
2018-03-25T09:30:19.987Z,995.54
2018-03-25T09:31:19.911Z,995.52
2018-03-25T09:32:19.924Z,995.56
2018-03-25T09:33:19.938Z,995.52
2018-03-25T09:34:19.952Z,995.53
2018-03-25T09:35:19.965Z,995.55
2018-03-25T09:36:19.980Z,995.54
2018-03-25T09:37:20.005Z,995.5
2018-03-25T09:38:20.007Z,995.54
2018-03-25T09:39:20.021Z,995.55
2018-03-25T09:40:20.035Z,995.55
2018-03-25T09:41:20.049Z,995.56
2018-03-25T09:42:20.062Z,995.58
2018-03-25T09:43:20.076Z,995.56
2018-03-25T09:44:20.093Z,995.57
2018-03-25T09:45:20.105Z,995.61
2018-03-25T09:46:20.119Z,995.61
2018-03-25T09:47:20.135Z,995.62
2018-03-25T09:48:20.152Z,995.62
2018-03-25T09:49:20.162Z,995.61
2018-03-25T09:50:20.180Z,995.61
2018-03-25T09:51:20.192Z,995.63
2018-03-25T09:52:20.204Z,995.64
2018-03-25T09:53:20.218Z,995.61
2018-03-25T09:54:20.233Z,995.63
2018-03-25T09:55:20.298Z,995.64
2018-03-25T09:56:20.264Z,995.62
2018-03-25T09:57:20.276Z,995.64
2018-03-25T09:58:20.296Z,995.63
2018-03-25T09:59:20.305Z,995.64
2018-03-25T10:00:20.321Z,995.6
2018-03-25T10:01:20.338Z,995.63
2018-03-25T10:02:20.350Z,995.62
2018-03-25T10:03:20.516Z,995.64
2018-03-25T10:04:20.383Z,995.61
2018-03-25T10:05:20.394Z,995.6
2018-03-25T10:06:20.409Z,995.6
2018-03-25T10:07:20.423Z,995.62
2018-03-25T10:08:20.438Z,995.61
2018-03-25T10:09:20.453Z,995.62
2018-03-25T10:10:20.468Z,995.62
2018-03-25T10:11:20.487Z,995.59
2018-03-25T10:12:20.498Z,995.61
2018-03-25T10:13:20.512Z,995.58
2018-03-25T10:14:20.528Z,995.58
2018-03-25T10:15:20.542Z,995.6
2018-03-25T10:16:20.564Z,995.61
2018-03-25T10:17:20.573Z,995.58
2018-03-25T10:18:20.588Z,995.56
2018-03-25T10:19:20.603Z,995.54
2018-03-25T10:20:20.618Z,995.58
2018-03-25T10:21:20.634Z,995.59
2018-03-25T10:22:20.650Z,995.55
2018-03-25T10:23:20.664Z,995.6
2018-03-25T10:24:20.680Z,995.52
2018-03-25T10:25:20.703Z,995.53
2018-03-25T10:26:20.712Z,995.5
2018-03-25T10:27:20.724Z,995.59
2018-03-25T10:28:20.744Z,995.53
2018-03-25T10:29:20.761Z,995.55
2018-03-25T10:30:20.775Z,995.57
2018-03-25T10:31:20.787Z,995.51
2018-03-25T10:32:20.804Z,995.59
2018-03-25T10:33:20.819Z,995.56
2018-03-25T10:34:20.836Z,995.55
2018-03-25T10:35:21.053Z,995.56
2018-03-25T10:36:20.867Z,995.57
2018-03-25T10:37:20.885Z,995.58
2018-03-25T10:38:20.907Z,995.59
2018-03-25T10:39:20.954Z,995.56
2018-03-25T10:40:20.930Z,995.63
2018-03-25T10:41:20.944Z,995.63
2018-03-25T10:42:20.961Z,995.65
2018-03-25T10:43:20.976Z,995.7
2018-03-25T10:44:20.992Z,995.69
2018-03-25T10:45:21.009Z,995.65
2018-03-25T10:46:21.035Z,995.71
2018-03-25T10:47:21.040Z,995.65
2018-03-25T10:48:21.057Z,995.61
2018-03-25T10:49:21.075Z,995.63
2018-03-25T10:50:21.090Z,995.59
2018-03-25T10:51:21.105Z,995.63
2018-03-25T10:52:21.120Z,995.62
2018-03-25T10:53:21.144Z,995.63
2018-03-25T10:54:21.154Z,995.6
2018-03-25T10:55:21.169Z,995.61
2018-03-25T10:56:21.187Z,995.62
2018-03-25T10:57:21.205Z,995.63
2018-03-25T10:58:21.218Z,995.61
2018-03-25T10:59:21.235Z,995.62
2018-03-25T11:00:21.250Z,995.62
2018-03-25T11:01:21.268Z,995.63
2018-03-25T11:02:21.284Z,995.64
2018-03-25T11:03:21.306Z,995.66
2018-03-25T11:04:21.316Z,995.65
2018-03-25T11:05:21.335Z,995.67
2018-03-25T11:06:21.348Z,995.65
2018-03-25T11:07:21.368Z,995.68
2018-03-25T11:08:21.385Z,995.65
2018-03-25T11:09:21.398Z,995.68
2018-03-25T11:10:21.414Z,995.67
2018-03-25T11:11:21.431Z,995.69
2018-03-25T11:12:21.449Z,995.67
2018-03-25T11:13:21.465Z,995.6
2018-03-25T11:14:21.481Z,995.66
2018-03-25T11:15:21.498Z,995.67
2018-03-25T11:16:21.516Z,995.64
2018-03-25T11:17:21.560Z,995.61
2018-03-25T11:18:21.549Z,995.68
2018-03-25T11:19:21.567Z,995.58
2018-03-25T11:20:21.584Z,995.61
2018-03-25T11:21:21.599Z,995.63
2018-03-25T11:22:21.615Z,995.61
2018-03-25T11:23:21.637Z,995.62
2018-03-25T11:24:21.651Z,995.61
2018-03-25T11:25:21.672Z,995.63
2018-03-25T11:26:21.687Z,995.65
2018-03-25T11:27:21.705Z,995.62
2018-03-25T11:28:21.717Z,995.62
2018-03-25T11:29:21.734Z,995.61
2018-03-25T11:30:21.752Z,995.6
2018-03-25T11:31:21.769Z,995.61
2018-03-25T11:32:21.786Z,995.59
2018-03-25T11:33:21.804Z,995.63
2018-03-25T11:34:21.820Z,995.65
2018-03-25T11:35:21.838Z,995.63
2018-03-25T11:36:21.855Z,995.7
2018-03-25T11:37:21.872Z,995.65
2018-03-25T11:38:21.889Z,995.64
2018-03-25T11:39:21.909Z,995.63
2018-03-25T11:40:21.924Z,995.66
2018-03-25T11:41:21.942Z,995.69
2018-03-25T11:42:21.960Z,995.69
2018-03-25T11:43:21.977Z,995.69
2018-03-25T11:44:21.997Z,995.71
2018-03-25T11:45:22.012Z,995.74
2018-03-25T11:46:22.031Z,995.72
2018-03-25T11:47:22.048Z,995.73
2018-03-25T11:48:22.065Z,995.76
2018-03-25T11:49:22.082Z,995.71
2018-03-25T11:50:22.099Z,995.71
2018-03-25T11:51:22.117Z,995.71
2018-03-25T11:52:22.135Z,995.71
2018-03-25T11:53:22.154Z,995.66
2018-03-25T11:54:22.171Z,995.69
2018-03-25T11:55:22.188Z,995.66
2018-03-25T11:56:22.206Z,995.68
2018-03-25T11:57:22.225Z,995.69
2018-03-25T11:58:22.243Z,995.68
2018-03-25T11:59:22.260Z,995.65
2018-03-25T12:00:22.277Z,995.68
2018-03-25T12:01:22.294Z,995.69
2018-03-25T12:02:22.314Z,995.69
2018-03-25T12:03:22.332Z,995.67
2018-03-25T12:04:22.351Z,995.72
2018-03-25T12:05:22.367Z,995.69
2018-03-25T12:06:22.386Z,995.68
2018-03-25T12:07:22.405Z,995.68
2018-03-25T12:08:22.424Z,995.63
2018-03-25T12:09:22.440Z,995.64
2018-03-25T12:10:22.460Z,995.67
2018-03-25T12:11:22.479Z,995.68
2018-03-25T12:12:22.494Z,995.67
2018-03-25T12:13:22.515Z,995.65
2018-03-25T12:14:22.532Z,995.67
2018-03-25T12:15:22.553Z,995.66
2018-03-25T12:16:22.601Z,995.66
2018-03-25T12:17:22.588Z,995.64
2018-03-25T12:18:22.605Z,995.62
2018-03-25T12:19:22.624Z,995.61
2018-03-25T12:20:22.643Z,995.61
2018-03-25T12:21:22.660Z,995.61
2018-03-25T12:22:22.678Z,995.65
2018-03-25T12:23:22.703Z,995.67
2018-03-25T12:24:22.716Z,995.62
2018-03-25T12:25:22.735Z,995.57
2018-03-25T12:26:22.752Z,995.59
2018-03-25T12:27:22.771Z,995.62
2018-03-25T12:28:22.790Z,995.57
2018-03-25T12:29:22.807Z,995.63
2018-03-25T12:30:22.825Z,995.57
2018-03-25T12:31:22.844Z,995.6